Time;durP1;ratioP1;P1;durP2;ratioP2;P2;SDS_P1;SDS_P2;PMS_P1;PMS_P2;Temp;Humidity;BMP_temperature;BMP_pressure;BME280_temperature;BME280_humidity;BME280_pressure;Samples;Min_cycle;Max_cycle;Signal;HPM_P1;HPM_P2
2023/09/15 00:00:40;;;;;;;19.60;13.93;;;;;;;-148.15;100.00;61821.78;4958949;29;20019;-95
2023/09/15 00:03:06;;;;;;;22.33;14.47;;;;;;;-148.15;100.00;61821.78;4954821;29;20031;-95
2023/09/15 00:05:33;;;;;;;19.67;14.80;;;;;;;-148.15;100.00;61821.78;4944946;29;20806;-96
2023/09/15 00:08:00;;;;;;;21.55;15.20;;;;;;;-148.15;100.00;61821.78;4946387;29;20395;-96
2023/09/15 00:10:28;;;;;;;19.13;14.63;;;;;;;-148.15;100.00;61821.78;4953088;29;20027;-96
2023/09/15 00:12:54;;;;;;;21.70;14.23;;;;;;;-148.15;100.00;61821.78;4965696;29;20035;-95
2023/09/15 00:15:19;;;;;;;19.60;14.30;;;;;;;-148.15;100.00;61821.78;4947996;29;20450;-96
2023/09/15 00:17:45;;;;;;;20.27;14.43;;;;;;;-148.15;100.00;61821.78;4932930;29;20102;-95
2023/09/15 00:20:13;;;;;;;22.50;14.88;;;;;;;-148.15;100.00;61821.78;4952659;29;20035;-95
2023/09/15 00:22:42;;;;;;;24.88;14.50;;;;;;;-148.15;100.00;61821.78;4968453;29;20030;-96
2023/09/15 00:25:10;;;;;;;20.10;14.60;;;;;;;-148.15;100.00;61821.78;4953250;29;20079;-96
2023/09/15 00:27:37;;;;;;;18.83;14.52;;;;;;;-148.15;100.00;61821.78;4959108;29;20043;-94
2023/09/15 00:30:04;;;;;;;18.17;14.73;;;;;;;-148.15;100.00;61821.78;4959984;29;20062;-95
2023/09/15 00:32:29;;;;;;;21.23;14.83;;;;;;;-148.15;100.00;61821.78;4976661;28;20023;-96
2023/09/15 00:34:54;;;;;;;19.63;15.30;;;;;;;-148.15;100.00;61821.78;4966015;28;20380;-96
2023/09/15 00:37:20;;;;;;;20.67;15.27;;;;;;;-148.15;100.00;61821.78;4957950;28;20052;-95
2023/09/15 00:39:45;;;;;;;18.43;14.80;;;;;;;-148.15;100.00;61821.78;4958801;28;20022;-95
2023/09/15 00:42:10;;;;;;;18.23;13.63;;;;;;;-148.15;100.00;61821.78;4958147;28;20116;-95
2023/09/15 00:44:36;;;;;;;17.83;14.93;;;;;;;-148.15;100.00;61821.78;4955412;28;20040;-95
2023/09/15 00:47:01;;;;;;;18.80;13.73;;;;;;;-148.15;100.00;61821.78;4944675;29;20027;-95
2023/09/15 00:49:27;;;;;;;20.20;14.50;;;;;;;-148.15;100.00;61821.78;4964399;29;20039;-96
2023/09/15 00:51:52;;;;;;;18.80;14.00;;;;;;;-148.15;100.00;61821.78;4942956;29;20028;-94
2023/09/15 00:54:18;;;;;;;20.50;14.45;;;;;;;-148.15;100.00;61821.78;4963182;29;20095;-94
2023/09/15 00:56:44;;;;;;;18.80;14.17;;;;;;;-148.15;100.00;61821.78;4946591;29;20106;-95
2023/09/15 00:59:10;;;;;;;19.55;14.98;;;;;;;-148.15;100.00;61821.78;4946521;29;20034;-94
2023/09/15 01:01:36;;;;;;;20.27;15.23;;;;;;;-148.15;100.00;61821.78;4943771;29;20039;-94
2023/09/15 01:04:02;;;;;;;19.67;15.13;;;;;;;-148.15;100.00;61821.78;4938922;29;20414;-95
2023/09/15 01:06:29;;;;;;;22.77;14.77;;;;;;;-148.15;100.00;61821.78;4955241;28;20073;-94
2023/09/15 01:08:55;;;;;;;21.40;14.77;;;;;;;-148.15;100.00;61821.78;4945145;29;20035;-95
2023/09/15 01:11:21;;;;;;;21.55;15.02;;;;;;;-148.15;100.00;61821.78;4963926;29;20090;-95
2023/09/15 01:13:49;;;;;;;20.67;14.40;;;;;;;-148.15;100.00;61821.78;4952897;29;20042;-94
2023/09/15 01:16:38;;;;;;;20.38;14.75;;;;;;;-148.15;100.00;61821.78;4962849;29;20027;-95
2023/09/15 01:19:39;;;;;;;21.85;15.48;;;;;;;-148.15;100.00;61821.78;4946460;29;20027;-95
2023/09/15 01:22:53;;;;;;;20.80;14.70;;;;;;;-148.15;100.00;61821.78;4971716;29;20030;-95
2023/09/15 01:26:01;;;;;;;20.65;15.57;;;;;;;-148.15;100.00;61821.78;4934083;29;20403;-94
2023/09/15 01:28:50;;;;;;;21.13;15.40;;;;;;;-148.15;100.00;61821.78;4939837;29;20126;-95
2023/09/15 01:31:17;;;;;;;25.67;16.77;;;;;;;-148.15;100.00;61821.78;4938190;29;20066;-95
2023/09/15 01:33:43;;;;;;;20.93;15.37;;;;;;;-148.15;100.00;61821.78;4954329;29;20031;-94
2023/09/15 01:36:10;;;;;;;23.20;15.77;;;;;;;-148.15;100.00;61821.78;4958059;29;20315;-95
2023/09/15 01:38:35;;;;;;;22.45;16.98;;;;;;;-148.15;100.00;61821.78;4958103;29;20085;-95
2023/09/15 01:41:02;;;;;;;20.63;16.33;;;;;;;-148.15;100.00;61821.78;4951528;28;20031;-95
2023/09/15 01:43:27;;;;;;;24.35;16.67;;;;;;;-148.15;100.00;61821.78;4957663;29;20027;-95
2023/09/15 01:45:53;;;;;;;21.35;16.10;;;;;;;-148.15;100.00;61821.78;4955210;28;20043;-95
2023/09/15 01:48:19;;;;;;;23.20;15.57;;;;;;;-148.15;100.00;61821.78;4957677;29;20090;-94
2023/09/15 01:50:47;;;;;;;26.35;15.90;;;;;;;-148.15;100.00;61821.78;4955807;29;20456;-95
2023/09/15 01:53:13;;;;;;;21.30;15.10;;;;;;;-148.15;100.00;61821.78;4959166;29;20420;-94
2023/09/15 01:55:39;;;;;;;25.40;15.23;;;;;;;-148.15;100.00;61821.78;4976078;28;20035;-94
2023/09/15 01:58:04;;;;;;;20.30;14.98;;;;;;;-148.15;100.00;61821.78;4934195;29;20064;-95
2023/09/15 02:00:35;;;;;;;20.20;15.67;;;;;;;-148.15;100.00;61821.78;4965605;29;20023;-96
2023/09/15 02:03:00;;;;;;;20.92;15.30;;;;;;;-148.15;100.00;61821.78;4967859;29;20074;-95
2023/09/15 02:05:25;;;;;;;22.10;15.77;;;;;;;-148.15;100.00;61821.78;4940392;29;20050;-95
2023/09/15 02:07:51;;;;;;;23.90;15.83;;;;;;;-148.15;100.00;61821.78;4957374;29;20039;-95
2023/09/15 02:10:17;;;;;;;23.23;15.80;;;;;;;-148.15;100.00;61821.78;4956492;29;20440;-93
2023/09/15 02:12:42;;;;;;;20.20;15.60;;;;;;;-148.15;100.00;61821.78;4954531;28;20655;-95
2023/09/15 02:15:08;;;;;;;19.37;14.97;;;;;;;-148.15;100.00;61821.78;4952874;28;20163;-95
2023/09/15 02:17:34;;;;;;;22.13;15.25;;;;;;;-148.15;100.00;61821.78;4939713;29;20023;-95
2023/09/15 02:19:59;;;;;;;24.30;15.20;;;;;;;-148.15;100.00;61821.78;4932689;29;20039;-95
2023/09/15 02:22:25;;;;;;;26.40;15.90;;;;;;;-148.15;100.00;61821.78;4947553;28;20555;-95
2023/09/15 02:24:50;;;;;;;20.45;15.00;;;;;;;-148.15;100.00;61821.78;4956764;29;20035;-96
2023/09/15 02:27:16;;;;;;;25.67;15.07;;;;;;;-148.15;100.00;61821.78;4957208;29;20086;-95
2023/09/15 02:29:41;;;;;;;21.50;15.03;;;;;;;-148.15;100.00;61821.78;4955070;28;20027;-94
2023/09/15 02:32:06;;;;;;;22.75;15.63;;;;;;;-148.15;100.00;61821.78;4955107;29;20031;-94
2023/09/15 02:34:32;;;;;;;22.23;15.03;;;;;;;-148.15;100.00;61821.78;4956232;29;20052;-94
2023/09/15 02:36:57;;;;;;;21.57;15.10;;;;;;;-148.15;100.00;61821.78;4956049;29;20063;-94
2023/09/15 02:39:23;;;;;;;25.13;16.47;;;;;;;-148.15;100.00;61821.78;4956264;29;20047;-94
2023/09/15 02:41:49;;;;;;;23.17;15.52;;;;;;;-148.15;100.00;61821.78;4954610;29;20063;-94
2023/09/15 02:44:14;;;;;;;23.93;15.40;;;;;;;-148.15;100.00;61821.78;4953074;29;20402;-94
2023/09/15 02:46:39;;;;;;;21.83;15.00;;;;;;;-148.15;100.00;61821.78;4950643;28;20055;-92
2023/09/15 02:49:05;;;;;;;21.17;14.27;;;;;;;-148.15;100.00;61821.78;4942795;28;20346;-93
2023/09/15 02:51:30;;;;;;;19.53;13.97;;;;;;;-148.15;100.00;61821.78;4937962;29;20043;-93
2023/09/15 02:53:57;;;;;;;21.47;14.60;;;;;;;-148.15;100.00;61821.78;4971607;29;20030;-96
2023/09/15 02:56:23;;;;;;;20.30;14.60;;;;;;;-148.15;100.00;61821.78;4970905;29;20031;-96
2023/09/15 02:58:49;;;;;;;20.55;14.07;;;;;;;-148.15;100.00;61821.78;4968728;29;20023;-96
2023/09/15 03:01:15;;;;;;;21.83;14.63;;;;;;;-148.15;100.00;61821.78;4973774;28;20027;-96
2023/09/15 03:03:41;;;;;;;22.52;14.57;;;;;;;-148.15;100.00;61821.78;4976401;28;20078;-95
2023/09/15 03:06:09;;;;;;;20.50;14.50;;;;;;;-148.15;100.00;61821.78;4956683;28;20071;-95
2023/09/15 03:08:36;;;;;;;21.00;14.00;;;;;;;-148.15;100.00;61821.78;4949419;29;20510;-94
2023/09/15 03:11:02;;;;;;;20.80;13.55;;;;;;;-148.15;100.00;61821.78;4945121;29;20016;-96
2023/09/15 03:13:29;;;;;;;21.30;13.63;;;;;;;-148.15;100.00;61821.78;4951193;28;20444;-96
2023/09/15 03:15:54;;;;;;;20.75;13.65;;;;;;;-148.15;100.00;61821.78;4957230;28;20159;-96
2023/09/15 03:18:19;;;;;;;19.73;13.77;;;;;;;-148.15;100.00;61821.78;4951090;29;20047;-95
2023/09/15 03:20:46;;;;;;;20.02;13.57;;;;;;;-148.15;100.00;61821.78;4968835;28;20232;-96
2023/09/15 03:23:11;;;;;;;18.67;13.70;;;;;;;-148.15;100.00;61821.78;4953282;28;20035;-96
2023/09/15 03:25:37;;;;;;;20.47;13.73;;;;;;;-148.15;100.00;61821.78;4957381;28;20814;-96
2023/09/15 03:28:02;;;;;;;22.63;14.10;;;;;;;-148.15;100.00;61821.78;4952453;29;20046;-96
2023/09/15 03:30:27;;;;;;;17.43;13.30;;;;;;;-148.15;100.00;61821.78;4948460;29;20028;-96
2023/09/15 03:32:53;;;;;;;20.50;13.93;;;;;;;-148.15;100.00;61821.78;4956224;29;20023;-96
2023/09/15 03:35:20;;;;;;;17.92;13.57;;;;;;;-148.15;100.00;61821.78;4940065;29;20031;-95
2023/09/15 03:37:45;;;;;;;18.73;14.05;;;;;;;-148.15;100.00;61821.78;4949426;28;20054;-95
2023/09/15 03:40:13;;;;;;;20.17;13.70;;;;;;;-148.15;100.00;61821.78;4956086;29;20115;-95
2023/09/15 03:42:39;;;;;;;18.98;13.77;;;;;;;-148.15;100.00;61821.78;4951189;28;20035;-96
2023/09/15 03:45:06;;;;;;;22.60;13.93;;;;;;;-148.15;100.00;61821.78;4958791;29;20043;-96
2023/09/15 03:47:34;;;;;;;17.38;13.27;;;;;;;-148.15;100.00;61821.78;4954781;29;20051;-94
2023/09/15 03:50:02;;;;;;;19.70;13.37;;;;;;;-148.15;100.00;61821.78;4933000;29;20127;-96
2023/09/15 03:52:29;;;;;;;16.67;12.27;;;;;;;-148.15;100.00;61821.78;4960501;28;20299;-95
2023/09/15 03:55:00;;;;;;;16.50;12.65;;;;;;;-148.15;100.00;61821.78;4937584;29;20105;-96
2023/09/15 03:57:26;;;;;;;17.58;12.80;;;;;;;-148.15;100.00;61821.78;4959659;29;20042;-96
2023/09/15 03:59:51;;;;;;;16.52;12.27;;;;;;;-148.15;100.00;61821.78;4960904;29;20035;-96
2023/09/15 04:02:21;;;;;;;19.07;12.23;;;;;;;-148.15;100.00;61821.78;5153364;23;20039;-96
2023/09/15 04:04:47;;;;;;;16.67;11.95;;;;;;;-148.15;100.00;61821.78;4981844;28;20114;-96
2023/09/15 04:07:13;;;;;;;15.33;12.20;;;;;;;-148.15;100.00;61821.78;4990030;28;20031;-96
2023/09/15 04:09:42;;;;;;;18.23;12.07;;;;;;;-148.15;100.00;61821.78;4996330;28;20014;-96
2023/09/15 04:12:11;;;;;;;18.77;12.07;;;;;;;-148.15;100.00;61821.78;4970826;28;20019;-96
2023/09/15 04:14:49;;;;;;;16.40;12.30;;;;;;;-148.15;100.00;61821.78;4951874;28;20275;-96
2023/09/15 04:17:15;;;;;;;15.65;11.50;;;;;;;-148.15;100.00;61821.78;4955641;29;20074;-96
2023/09/15 04:19:59;;;;;;;20.00;11.90;;;;;;;-148.15;100.00;61821.78;4939100;29;20040;-96
2023/09/15 04:22:28;;;;;;;17.50;12.48;;;;;;;-148.15;100.00;61821.78;4939618;29;20028;-96
2023/09/15 04:24:53;;;;;;;17.08;11.38;;;;;;;-148.15;100.00;61821.78;4938458;29;20043;-96
2023/09/15 04:27:19;;;;;;;15.67;11.60;;;;;;;-148.15;100.00;61821.78;4940895;29;20036;-96
2023/09/15 04:29:55;;;;;;;18.08;11.88;;;;;;;-148.15;100.00;61821.78;4942011;29;20110;-96
2023/09/15 04:32:21;;;;;;;17.07;12.43;;;;;;;-148.15;100.00;61821.78;4949880;29;20019;-96
2023/09/15 04:39:58;;;;;;;17.02;11.70;;;;;;;-148.15;100.00;61821.78;4937908;29;20054;-96
2023/09/15 04:42:24;;;;;;;16.58;10.85;;;;;;;-148.15;100.00;61821.78;4932795;29;20023;-95
2023/09/15 04:44:50;;;;;;;17.67;11.67;;;;;;;-148.15;100.00;61821.78;4919026;29;20037;-96
2023/09/15 04:47:34;;;;;;;12.57;10.50;;;;;;;-148.15;100.00;61821.78;4919311;29;20036;-96
2023/09/15 04:49:59;;;;;;;16.20;11.10;;;;;;;-148.15;100.00;61821.78;4886864;29;20096;-95
2023/09/15 04:52:25;;;;;;;18.50;11.77;;;;;;;-148.15;100.00;61821.78;4903713;29;20064;-92
2023/09/15 04:54:50;;;;;;;16.98;11.50;;;;;;;-148.15;100.00;61821.78;4901144;29;20050;-91
2023/09/15 04:57:15;;;;;;;18.37;11.30;;;;;;;-148.15;100.00;61821.78;4894722;29;20029;-92
2023/09/15 04:59:41;;;;;;;15.73;11.50;;;;;;;-148.15;100.00;61821.78;4899142;29;20105;-90
2023/09/15 05:02:07;;;;;;;16.23;11.77;;;;;;;-148.15;100.00;61821.78;4898089;29;20029;-91
2023/09/15 05:04:32;;;;;;;15.87;11.63;;;;;;;-148.15;100.00;61821.78;4895325;29;20052;-90
2023/09/15 05:06:58;;;;;;;16.42;11.73;;;;;;;-148.15;100.00;61821.78;4889577;29;20060;-91
2023/09/15 05:09:24;;;;;;;19.40;11.70;;;;;;;-148.15;100.00;61821.78;4879674;29;20135;-91
2023/09/15 05:11:52;;;;;;;16.23;12.20;;;;;;;-148.15;100.00;61821.78;4909447;29;20029;-88
2023/09/15 05:14:18;;;;;;;17.60;11.38;;;;;;;-148.15;100.00;61821.78;4890642;29;20060;-89
2023/09/15 05:16:43;;;;;;;19.37;11.83;;;;;;;-148.15;100.00;61821.78;4887437;29;20052;-91
2023/09/15 05:19:08;;;;;;;17.97;11.83;;;;;;;-148.15;100.00;61821.78;4899157;29;20143;-87
2023/09/15 05:21:34;;;;;;;18.23;12.83;;;;;;;-148.15;100.00;61821.78;4896510;29;20387;-87
2023/09/15 05:23:59;;;;;;;19.83;12.97;;;;;;;-148.15;100.00;61821.78;4895248;29;20038;-87
2023/09/15 05:26:24;;;;;;;20.27;12.50;;;;;;;-148.15;100.00;61821.78;4896867;29;20153;-87
2023/09/15 05:28:50;;;;;;;21.17;12.50;;;;;;;-148.15;100.00;61821.78;4897901;29;20041;-87
2023/09/15 05:31:17;;;;;;;18.90;12.73;;;;;;;-148.15;100.00;61821.78;4897673;29;20034;-87
2023/09/15 05:33:42;;;;;;;16.55;11.93;;;;;;;-148.15;100.00;61821.78;4897010;29;20029;-87
2023/09/15 05:36:08;;;;;;;17.97;12.23;;;;;;;-148.15;100.00;61821.78;4899130;29;20044;-88
2023/09/15 05:38:33;;;;;;;18.92;11.95;;;;;;;-148.15;100.00;61821.78;4899269;29;20063;-89
2023/09/15 05:40:58;;;;;;;18.97;11.77;;;;;;;-148.15;100.00;61821.78;4897537;29;20480;-89
2023/09/15 05:43:24;;;;;;;20.37;12.77;;;;;;;-148.15;100.00;61821.78;4899648;29;20156;-89
2023/09/15 05:45:49;;;;;;;16.93;12.03;;;;;;;-148.15;100.00;61821.78;4904730;29;20020;-89
2023/09/15 05:48:22;;;;;;;18.13;13.00;;;;;;;-148.15;100.00;61821.78;4902943;29;20387;-89
2023/09/15 05:50:48;;;;;;;19.83;13.60;;;;;;;-148.15;100.00;61821.78;4907276;29;20055;-88
2023/09/15 05:53:13;;;;;;;21.83;13.65;;;;;;;-148.15;100.00;61821.78;4899179;29;20024;-89
2023/09/15 05:55:38;;;;;;;20.23;13.73;;;;;;;-148.15;100.00;61821.78;4900990;29;20230;-86
2023/09/15 05:58:04;;;;;;;18.10;12.80;;;;;;;-148.15;100.00;61821.78;4899618;29;20045;-89
2023/09/15 06:00:29;;;;;;;19.63;13.97;;;;;;;-148.15;100.00;61821.78;4896527;29;20028;-86
2023/09/15 06:02:54;;;;;;;19.90;12.60;;;;;;;-148.15;100.00;61821.78;4897047;29;20093;-86
2023/09/15 06:05:22;;;;;;;22.37;13.57;;;;;;;-148.15;100.00;61821.78;4907314;29;20064;-87
2023/09/15 06:07:54;;;;;;;24.50;14.93;;;;;;;-148.15;100.00;61821.78;4893256;29;20037;-87
2023/09/15 06:10:20;;;;;;;23.08;14.88;;;;;;;-148.15;100.00;61821.78;4879547;29;20064;-89
2023/09/15 06:12:49;;;;;;;23.00;13.83;;;;;;;-148.15;100.00;61821.78;4894931;29;20067;-89
2023/09/15 06:15:14;;;;;;;22.15;14.32;;;;;;;-148.15;100.00;61821.78;4895305;29;20123;-85
2023/09/15 06:17:40;;;;;;;26.80;15.05;;;;;;;-148.15;100.00;61821.78;4894402;29;20417;-87
2023/09/15 06:20:06;;;;;;;23.93;13.90;;;;;;;-148.15;100.00;61821.78;4896237;29;20040;-87
2023/09/15 06:22:33;;;;;;;19.90;13.68;;;;;;;-148.15;100.00;61821.78;4896931;29;20036;-87
2023/09/15 06:24:59;;;;;;;21.13;13.27;;;;;;;-148.15;100.00;61821.78;4892443;29;20056;-87
2023/09/15 06:27:24;;;;;;;19.13;14.53;;;;;;;-148.15;100.00;61821.78;4893574;29;20421;-87
2023/09/15 06:29:51;;;;;;;21.43;13.97;;;;;;;-148.15;100.00;61821.78;4892817;29;20056;-87
2023/09/15 06:32:18;;;;;;;19.80;13.65;;;;;;;-148.15;100.00;61821.78;4872793;29;20060;-87
2023/09/15 06:34:43;;;;;;;24.15;15.43;;;;;;;-148.15;100.00;61821.78;4894722;29;20689;-88
2023/09/15 06:37:09;;;;;;;19.45;14.02;;;;;;;-148.15;100.00;61821.78;4902083;29;20025;-90
2023/09/15 06:39:35;;;;;;;23.40;14.17;;;;;;;-148.15;100.00;61821.78;4896883;29;20119;-87
2023/09/15 06:42:01;;;;;;;21.60;12.77;;;;;;;-148.15;100.00;61821.78;4878328;29;20092;-87
2023/09/15 06:44:26;;;;;;;22.02;14.15;;;;;;;-148.15;100.00;61821.78;4907404;29;20036;-89
2023/09/15 06:46:52;;;;;;;20.10;13.63;;;;;;;-148.15;100.00;61821.78;4895763;29;20081;-86
2023/09/15 06:49:21;;;;;;;22.17;13.20;;;;;;;-148.15;100.00;61821.78;4894439;29;20033;-91
2023/09/15 06:51:48;;;;;;;24.13;13.50;;;;;;;-148.15;100.00;61821.78;4893738;29;20037;-86
2023/09/15 06:54:13;;;;;;;18.95;13.90;;;;;;;-148.15;100.00;61821.78;4904718;29;20112;-89
2023/09/15 06:56:38;;;;;;;21.50;13.10;;;;;;;-148.15;100.00;61821.78;4900420;29;20115;-89
2023/09/15 06:59:04;;;;;;;20.77;13.17;;;;;;;-148.15;100.00;61821.78;4903278;29;20037;-88
2023/09/15 07:01:30;;;;;;;17.17;12.80;;;;;;;-148.15;100.00;61821.78;4893870;29;20032;-87
2023/09/15 07:03:55;;;;;;;17.87;12.60;;;;;;;-148.15;100.00;61821.78;4895220;29;20546;-96
2023/09/15 07:06:20;;;;;;;20.63;13.03;;;;;;;-148.15;100.00;61821.78;4878370;29;20063;-90
2023/09/15 07:08:48;;;;;;;17.37;12.50;;;;;;;-148.15;100.00;61821.78;4893913;29;20037;-88
2023/09/15 07:11:13;;;;;;;21.77;13.07;;;;;;;-148.15;100.00;61821.78;4894708;29;20606;-85
2023/09/15 07:13:38;;;;;;;17.52;12.45;;;;;;;-148.15;100.00;61821.78;4897836;29;20031;-88
2023/09/15 07:16:04;;;;;;;20.17;12.20;;;;;;;-148.15;100.00;61821.78;4896010;29;20035;-87
2023/09/15 07:18:29;;;;;;;19.73;13.57;;;;;;;-148.15;100.00;61821.78;4898277;29;20035;-88
2023/09/15 07:20:54;;;;;;;20.90;13.40;;;;;;;-148.15;100.00;61821.78;4892219;29;20035;-85
2023/09/15 07:23:20;;;;;;;20.00;13.63;;;;;;;-148.15;100.00;61821.78;4894847;29;20084;-87
2023/09/15 07:25:45;;;;;;;23.77;13.30;;;;;;;-148.15;100.00;61821.78;4901914;29;20293;-94
2023/09/15 07:28:12;;;;;;;17.17;11.60;;;;;;;-148.15;100.00;61821.78;4897998;29;20064;-94
2023/09/15 07:30:38;;;;;;;15.60;12.10;;;;;;;-148.15;100.00;61821.78;4894986;29;20097;-89
2023/09/15 07:33:03;;;;;;;23.10;12.75;;;;;;;-148.15;100.00;61821.78;4894894;29;20362;-89
2023/09/15 07:35:29;;;;;;;14.67;11.77;;;;;;;-148.15;100.00;61821.78;4895031;29;20077;-87
2023/09/15 07:37:55;;;;;;;17.30;10.20;;;;;;;-148.15;100.00;61821.78;4894598;29;20044;-91
2023/09/15 07:40:22;;;;;;;15.00;9.23;;;;;;;-148.15;100.00;61821.78;4896729;29;20119;-95
2023/09/15 07:42:48;;;;;;;13.98;10.13;;;;;;;-148.15;100.00;61821.78;4876907;29;20139;-92
2023/09/15 07:45:13;;;;;;;17.48;10.93;;;;;;;-148.15;100.00;61821.78;4901409;29;20512;-88
2023/09/15 07:47:39;;;;;;;13.57;9.98;;;;;;;-148.15;100.00;61821.78;4903247;29;20119;-84
2023/09/15 07:50:05;;;;;;;14.33;9.37;;;;;;;-148.15;100.00;61821.78;4893611;29;20084;-84
2023/09/15 07:52:31;;;;;;;13.50;9.17;;;;;;;-148.15;100.00;61821.78;4881834;29;22110;-86
2023/09/15 07:54:56;;;;;;;16.53;9.60;;;;;;;-148.15;100.00;61821.78;4893639;29;20292;-88
2023/09/15 07:57:21;;;;;;;15.03;9.53;;;;;;;-148.15;100.00;61821.78;4875397;29;20437;-86
2023/09/15 07:59:47;;;;;;;15.17;9.50;;;;;;;-148.15;100.00;61821.78;4892440;29;20047;-89
2023/09/15 08:02:13;;;;;;;13.95;8.82;;;;;;;-148.15;100.00;61821.78;4892451;29;20058;-84
2023/09/15 08:04:39;;;;;;;12.97;9.77;;;;;;;-148.15;100.00;61821.78;4892972;29;20392;-87
2023/09/15 08:07:06;;;;;;;13.57;9.18;;;;;;;-148.15;100.00;61821.78;4893978;29;20024;-87
2023/09/15 08:09:31;;;;;;;13.85;9.15;;;;;;;-148.15;100.00;61821.78;4893342;29;20035;-87
2023/09/15 08:11:59;;;;;;;11.97;8.97;;;;;;;-148.15;100.00;61821.78;4895850;29;20032;-88
2023/09/15 08:14:25;;;;;;;16.88;9.02;;;;;;;-148.15;100.00;61821.78;4904026;29;20028;-87
2023/09/15 08:16:51;;;;;;;11.93;8.57;;;;;;;-148.15;100.00;61821.78;4893122;29;20052;-90
2023/09/15 08:19:17;;;;;;;12.30;8.63;;;;;;;-148.15;100.00;61821.78;4892425;29;20040;-88
2023/09/15 08:21:42;;;;;;;15.67;8.80;;;;;;;-148.15;100.00;61821.78;4894752;29;20036;-89
2023/09/15 08:24:08;;;;;;;12.17;7.80;;;;;;;-148.15;100.00;61821.78;4893805;29;20032;-88
2023/09/15 08:26:33;;;;;;;16.20;9.30;;;;;;;-148.15;100.00;61821.78;4889947;29;20033;-88
2023/09/15 08:28:59;;;;;;;16.43;8.80;;;;;;;-148.15;100.00;61821.78;4891342;29;20033;-88
2023/09/15 08:31:25;;;;;;;11.33;8.27;;;;;;;-148.15;100.00;61821.78;4893619;29;20037;-91
2023/09/15 08:33:52;;;;;;;16.42;8.30;;;;;;;-148.15;100.00;61821.78;4893077;29;20052;-90
2023/09/15 08:36:18;;;;;;;13.63;8.70;;;;;;;-148.15;100.00;61821.78;4901930;29;20044;-92
2023/09/15 08:38:43;;;;;;;9.90;7.83;;;;;;;-148.15;100.00;61821.78;4905646;29;20025;-89
2023/09/15 08:41:29;;;;;;;11.13;7.33;;;;;;;-148.15;100.00;61821.78;4899820;29;20484;-88
2023/09/15 08:43:55;;;;;;;15.93;7.85;;;;;;;-148.15;100.00;61821.78;4900816;29;20091;-87
2023/09/15 08:46:22;;;;;;;9.85;7.07;;;;;;;-148.15;100.00;61821.78;4894710;29;20441;-87
2023/09/15 08:48:51;;;;;;;13.45;6.95;;;;;;;-148.15;100.00;61821.78;4896379;29;20033;-87
2023/09/15 08:51:17;;;;;;;11.07;6.95;;;;;;;-148.15;100.00;61821.78;4909347;29;20175;-86
2023/09/15 08:53:43;;;;;;;13.70;6.90;;;;;;;-148.15;100.00;61821.78;4900442;29;20119;-87
2023/09/15 08:56:09;;;;;;;11.18;7.40;;;;;;;-148.15;100.00;61821.78;4896390;29;20377;-87
2023/09/15 08:58:35;;;;;;;10.80;6.70;;;;;;;-148.15;100.00;61821.78;4912852;29;20073;-87
2023/09/15 09:01:07;;;;;;;11.20;6.35;;;;;;;-148.15;100.00;61821.78;4910677;29;20060;-86
2023/09/15 09:03:35;;;;;;;9.77;6.30;;;;;;;-148.15;100.00;61821.78;4912210;29;20028;-86
2023/09/15 09:06:03;;;;;;;11.98;6.80;;;;;;;-148.15;100.00;61821.78;4910297;29;20088;-87
2023/09/15 09:08:29;;;;;;;11.40;6.32;;;;;;;-148.15;100.00;61821.78;4912917;29;20039;-87
2023/09/15 09:10:55;;;;;;;10.02;7.38;;;;;;;-148.15;100.00;61821.78;4896808;29;20052;-87
2023/09/15 09:13:22;;;;;;;10.73;7.13;;;;;;;-148.15;100.00;61821.78;4893199;29;20040;-87
2023/09/15 09:15:49;;;;;;;12.73;6.90;;;;;;;-148.15;100.00;61821.78;4876077;29;20045;-87
2023/09/15 09:18:16;;;;;;;15.38;6.55;;;;;;;-148.15;100.00;61821.78;4893869;29;20028;-87
2023/09/15 09:20:42;;;;;;;9.38;6.45;;;;;;;-148.15;100.00;61821.78;4874658;29;20048;-87
2023/09/15 09:23:09;;;;;;;11.30;6.40;;;;;;;-148.15;100.00;61821.78;4894864;29;20032;-87
2023/09/15 09:25:35;;;;;;;8.90;6.25;;;;;;;-148.15;100.00;61821.78;4896513;29;20040;-87
2023/09/15 09:28:03;;;;;;;9.63;6.38;;;;;;;-148.15;100.00;61821.78;4895365;29;20040;-87
2023/09/15 09:30:32;;;;;;;9.80;6.07;;;;;;;-148.15;100.00;61821.78;4896230;29;20483;-88
2023/09/15 09:32:58;;;;;;;14.50;7.03;;;;;;;-148.15;100.00;61821.78;4896252;29;20082;-87
2023/09/15 09:35:24;;;;;;;9.37;6.47;;;;;;;-148.15;100.00;61821.78;4897525;29;20072;-88
2023/09/15 09:37:54;;;;;;;13.83;6.60;;;;;;;-148.15;100.00;61821.78;4907278;29;20858;-88
2023/09/15 09:40:21;;;;;;;9.65;6.60;;;;;;;-148.15;100.00;61821.78;4895972;29;20064;-88
2023/09/15 09:42:48;;;;;;;7.70;6.20;;;;;;;-148.15;100.00;61821.78;4896558;29;20028;-88
2023/09/15 09:45:14;;;;;;;10.88;6.00;;;;;;;-148.15;100.00;61821.78;4898281;29;20025;-88
2023/09/15 09:47:40;;;;;;;12.32;6.78;;;;;;;-148.15;100.00;61821.78;4880602;29;20029;-88
2023/09/15 09:50:09;;;;;;;10.20;6.50;;;;;;;-148.15;100.00;61821.78;4883399;29;20048;-88
2023/09/15 09:52:35;;;;;;;11.10;6.40;;;;;;;-148.15;100.00;61821.78;4906316;29;20051;-88
2023/09/15 09:55:05;;;;;;;9.55;6.10;;;;;;;-148.15;100.00;61821.78;4898477;29;20017;-88
2023/09/15 09:57:31;;;;;;;11.27;6.10;;;;;;;-148.15;100.00;61821.78;4897739;29;20032;-87
2023/09/15 09:59:57;;;;;;;9.73;6.22;;;;;;;-148.15;100.00;61821.78;4898486;29;20093;-88
2023/09/15 10:02:22;;;;;;;11.00;5.80;;;;;;;-148.15;100.00;61821.78;4895921;29;20045;-87
2023/09/15 10:04:47;;;;;;;6.93;5.30;;;;;;;-148.15;100.00;61821.78;4897666;29;20512;-87
2023/09/15 10:07:13;;;;;;;8.85;5.03;;;;;;;-148.15;100.00;61821.78;4900621;29;20096;-87
2023/09/15 10:09:39;;;;;;;10.63;5.83;;;;;;;-148.15;100.00;61821.78;4897054;29;20044;-88
2023/09/15 10:12:05;;;;;;;8.88;5.60;;;;;;;-148.15;100.00;61821.78;4896407;29;20433;-88
2023/09/15 10:14:31;;;;;;;8.80;5.33;;;;;;;-148.15;100.00;61821.78;4895814;29;20024;-88
2023/09/15 10:16:57;;;;;;;8.63;5.67;;;;;;;-148.15;100.00;61821.78;4894719;29;20308;-88
2023/09/15 10:19:24;;;;;;;8.90;5.60;;;;;;;-148.15;100.00;61821.78;4896708;29;20043;-88
2023/09/15 10:21:50;;;;;;;8.45;5.32;;;;;;;-148.15;100.00;61821.78;4893648;29;20040;-88
2023/09/15 10:24:16;;;;;;;7.25;4.88;;;;;;;-148.15;100.00;61821.78;4896294;29;20052;-89
2023/09/15 10:26:41;;;;;;;7.17;4.90;;;;;;;-148.15;100.00;61821.78;4896511;29;20488;-88
2023/09/15 10:29:13;;;;;;;8.18;5.55;;;;;;;-148.15;100.00;61821.78;4893512;29;20499;-88
2023/09/15 10:31:44;;;;;;;8.33;4.80;;;;;;;-148.15;100.00;61821.78;4894402;29;20028;-89
2023/09/15 10:34:10;;;;;;;9.53;4.53;;;;;;;-148.15;100.00;61821.78;4876291;29;20337;-87
2023/09/15 10:36:35;;;;;;;9.68;5.03;;;;;;;-148.15;100.00;61821.78;4909021;29;20044;-93
2023/09/15 10:39:14;;;;;;;10.67;5.30;;;;;;;-148.15;100.00;61821.78;4901405;29;20035;-92
2023/09/15 10:41:40;;;;;;;6.40;4.50;;;;;;;-148.15;100.00;61821.78;4897639;29;20453;-92
2023/09/15 10:44:06;;;;;;;8.93;5.38;;;;;;;-148.15;100.00;61821.78;4901783;29;20032;-94
2023/09/15 10:46:40;;;;;;;6.63;5.20;;;;;;;-148.15;100.00;61821.78;4906087;29;20044;-94
2023/09/15 10:49:16;;;;;;;7.87;4.83;;;;;;;-148.15;100.00;61821.78;4901367;29;20035;-93
2023/09/15 10:51:55;;;;;;;6.93;4.80;;;;;;;-148.15;100.00;61821.78;4912813;29;20033;-94
2023/09/15 10:54:21;;;;;;;8.45;4.53;;;;;;;-148.15;100.00;61821.78;4898494;29;20550;-93
2023/09/15 10:56:47;;;;;;;7.78;4.35;;;;;;;-148.15;100.00;61821.78;4898521;29;20095;-94
2023/09/15 10:59:14;;;;;;;6.05;3.83;;;;;;;-148.15;100.00;61821.78;4895453;29;20039;-94
2023/09/15 11:01:43;;;;;;;7.07;4.80;;;;;;;-148.15;100.00;61821.78;4881169;29;20531;-93